Weather at Tokyo Haneda International Airport

Public forecast

Using degrees Celsius for public forecast. Weather courtesy of forecast.io.

Current aviation weather report (METAR) for Tokyo Haneda International Airport

2024/02/25 12:00 (retrieved 12 minutes ago)

RJTT 251200Z 34015KT 9999 -RA FEW010 BKN025 06/04 Q1015 TEMPO FEW005 BKN008

Aviation forecast (TAF) for Tokyo Haneda International Airport

2024/02/25 12:30 (retrieved 0 seconds ago)

TAF TAF RJTT 251105Z 2512/2618 34020KT 8000 -RA FEW008 BKN015 TEMPO 2512/2518 4000 -RA BR FEW005 BKN008 TEMPO 2521/2603 33028G38KT BECMG 2603/2606 33030KT TEMPO 2603/2618 33038G50KT